Time;durP1;ratioP1;P1;durP2;ratioP2;P2;SDS_P1;SDS_P2;PMS_P1;PMS_P2;Temp;Humidity;BMP_temperature;BMP_pressure;BME280_temperature;BME280_humidity;BME280_pressure;Samples;Min_cycle;Max_cycle;Signal;HPM_P1;HPM_P2
2023/01/23 00:00:58;;;;;;;10.18;4.97;;;2.80;99.90;;;;;;4880722;29;20029;-81
2023/01/23 00:03:24;;;;;;;7.65;4.53;;;3.50;99.90;;;;;;4865138;29;20401;-81
2023/01/23 00:06:01;;;;;;;12.10;4.60;;;4.50;99.90;;;;;;4848674;29;20037;-81
2023/01/23 00:08:28;;;;;;;11.20;4.50;;;4.10;99.90;;;;;;4895542;29;20302;-81
2023/01/23 00:10:54;;;;;;;10.52;4.65;;;4.70;99.90;;;;;;4890640;29;20127;-81
2023/01/23 00:13:20;;;;;;;10.70;4.38;;;2.80;99.90;;;;;;4876586;29;20524;-81
2023/01/23 00:15:46;;;;;;;;;;;2.80;99.90;;;;;;4865558;29;20074;-81
2023/01/23 00:18:12;;;;;;;9.77;4.53;;;2.90;99.90;;;;;;4880557;29;19970;-80
2023/01/23 00:20:38;;;;;;;11.20;6.15;;;4.40;99.90;;;;;;4870331;29;20048;-80
2023/01/23 00:23:04;;;;;;;15.55;5.00;;;4.60;99.90;;;;;;4873590;29;20489;-80
2023/01/23 00:25:30;;;;;;;10.60;4.63;;;4.40;99.90;;;;;;4864888;29;20109;-81
2023/01/23 00:27:55;;;;;;;9.33;4.40;;;2.80;99.90;;;;;;4892000;29;20040;-81
2023/01/23 00:30:21;;;;;;;14.40;4.87;;;2.90;99.90;;;;;;4872924;29;20292;-81
2023/01/23 00:32:47;;;;;;;16.50;5.13;;;4.00;99.90;;;;;;4851585;29;20421;-81
2023/01/23 00:35:12;;;;;;;8.93;4.83;;;2.80;99.90;;;;;;4872100;29;20284;-81
2023/01/23 00:37:38;;;;;;;10.85;4.68;;;2.80;99.90;;;;;;4891166;29;20091;-81
2023/01/23 00:40:04;;;;;;;11.40;4.90;;;3.10;99.90;;;;;;4876242;29;20052;-81
2023/01/23 00:42:30;;;;;;;8.63;4.40;;;2.80;99.90;;;;;;4878416;29;20646;-80
2023/01/23 00:44:56;;;;;;;10.73;4.93;;;2.90;99.90;;;;;;4868821;29;20047;-80
2023/01/23 00:47:21;;;;;;;11.83;4.87;;;3.00;99.90;;;;;;4864307;29;20289;-80
2023/01/23 00:49:47;;;;;;;10.98;4.40;;;3.10;99.90;;;;;;4832418;29;20056;-80
2023/01/23 00:52:13;;;;;;;10.38;4.60;;;4.20;99.90;;;;;;4877878;29;20131;-80
2023/01/23 00:54:38;;;;;;;11.07;4.40;;;2.90;99.90;;;;;;4844092;29;20033;-80
2023/01/23 00:57:04;;;;;;;12.37;4.77;;;2.80;99.90;;;;;;4864166;29;20499;-80
2023/01/23 00:59:30;;;;;;;11.60;4.65;;;2.80;99.90;;;;;;4877617;29;20277;-79
2023/01/23 01:01:55;;;;;;;10.90;5.00;;;4.00;99.90;;;;;;4848957;29;20076;-79
2023/01/23 01:04:24;;;;;;;13.77;4.77;;;2.80;99.90;;;;;;4888623;29;20315;-80
2023/01/23 01:06:50;;;;;;;10.75;4.78;;;4.50;99.90;;;;;;4847837;29;20379;-80
2023/01/23 01:09:15;;;;;;;12.00;4.80;;;2.80;99.90;;;;;;4875753;29;20051;-79
2023/01/23 01:11:41;;;;;;;8.00;4.43;;;3.80;99.90;;;;;;4870615;29;20891;-80
2023/01/23 01:14:07;;;;;;;17.27;4.57;;;3.10;99.90;;;;;;4864491;29;20040;-80
2023/01/23 01:16:33;;;;;;;10.05;4.32;;;2.80;99.90;;;;;;4893607;29;20040;-80
2023/01/23 01:18:58;;;;;;;13.40;4.40;;;3.00;99.90;;;;;;4889471;29;20044;-80
2023/01/23 01:21:24;;;;;;;10.80;4.80;;;3.10;99.90;;;;;;4874592;29;20295;-80
2023/01/23 01:23:50;;;;;;;8.63;4.30;;;3.10;99.90;;;;;;4873145;29;20340;-80
2023/01/23 01:26:17;;;;;;;8.85;4.35;;;2.80;99.90;;;;;;4884587;29;20075;-80
2023/01/23 01:28:43;;;;;;;10.50;4.45;;;3.80;99.90;;;;;;4854146;29;20041;-80
2023/01/23 01:31:11;;;;;;;13.55;5.40;;;2.80;99.90;;;;;;4863119;29;20127;-80
2023/01/23 01:33:38;;;;;;;13.50;4.95;;;3.20;99.90;;;;;;4885545;29;20075;-80
2023/01/23 01:36:12;;;;;;;10.57;4.40;;;2.80;99.90;;;;;;4879069;29;20033;-80
2023/01/23 01:38:38;;;;;;;10.93;4.45;;;4.00;99.90;;;;;;4863172;29;20100;-79
2023/01/23 01:41:05;;;;;;;11.00;4.95;;;3.20;99.90;;;;;;4872094;29;20179;-80
2023/01/23 01:43:32;;;;;;;13.75;4.57;;;2.70;99.90;;;;;;4894902;29;20040;-80
2023/01/23 01:46:07;;;;;;;12.93;4.75;;;2.80;99.90;;;;;;4898023;29;20071;-80
2023/01/23 01:48:51;;;;;;;11.73;4.97;;;3.60;99.90;;;;;;4885975;29;20086;-80
2023/01/23 01:51:23;;;;;;;12.90;4.57;;;2.80;99.90;;;;;;4888919;29;20036;-81
2023/01/23 01:54:06;;;;;;;9.98;5.07;;;2.80;99.90;;;;;;4897436;29;20055;-80
2023/01/23 01:56:38;;;;;;;11.18;4.85;;;2.80;99.90;;;;;;4877153;29;20481;-80
2023/01/23 01:59:05;;;;;;;11.10;4.65;;;2.80;99.90;;;;;;4892606;29;20103;-80
2023/01/23 02:01:31;;;;;;;10.30;4.65;;;3.10;99.90;;;;;;4881331;29;20043;-80
2023/01/23 02:03:57;;;;;;;8.80;4.82;;;3.30;99.90;;;;;;4869204;29;20059;-80
2023/01/23 02:06:24;;;;;;;9.25;5.13;;;2.80;99.90;;;;;;4868259;29;20505;-80
2023/01/23 02:09:03;;;;;;;12.48;5.05;;;2.80;99.90;;;;;;4852207;29;20444;-81
2023/01/23 02:11:29;;;;;;;8.90;4.80;;;2.80;99.90;;;;;;4894500;29;20051;-81
2023/01/23 02:13:55;;;;;;;8.25;4.50;;;3.30;99.90;;;;;;4892039;29;20044;-80
2023/01/23 02:16:28;;;;;;;9.60;4.55;;;2.80;99.90;;;;;;4878670;29;20075;-81
2023/01/23 02:18:58;;;;;;;11.50;5.15;;;2.80;99.90;;;;;;4882887;29;20061;-80
2023/01/23 02:21:24;;;;;;;11.27;5.30;;;3.00;99.90;;;;;;4865454;29;20072;-81
2023/01/23 02:24:13;;;;;;;8.93;5.00;;;3.90;99.90;;;;;;4863042;29;20102;-80
2023/01/23 02:26:44;;;;;;;8.50;4.63;;;2.80;99.90;;;;;;4882485;29;20051;-80
2023/01/23 02:29:11;;;;;;;13.73;4.90;;;4.20;99.90;;;;;;4878602;29;20490;-80
2023/01/23 02:31:37;;;;;;;10.20;5.03;;;2.80;99.90;;;;;;4869382;29;20041;-80
2023/01/23 02:34:04;;;;;;;10.50;5.18;;;4.30;99.90;;;;;;4874695;29;20059;-80
2023/01/23 02:36:32;;;;;;;10.73;5.10;;;3.60;99.90;;;;;;4883936;29;20096;-80
2023/01/23 02:39:00;;;;;;;10.60;5.22;;;2.80;99.90;;;;;;4874287;29;20052;-80
2023/01/23 02:41:45;;;;;;;11.13;5.45;;;2.80;99.90;;;;;;4863114;29;20498;-80
2023/01/23 02:44:17;;;;;;;10.85;4.72;;;3.80;99.90;;;;;;4865641;29;20071;-80
2023/01/23 02:46:43;;;;;;;12.27;5.50;;;2.80;99.90;;;;;;4872905;29;20040;-80
2023/01/23 02:49:09;;;;;;;11.77;5.63;;;2.80;99.90;;;;;;4863046;29;20040;-80
2023/01/23 02:51:35;;;;;;;9.65;5.05;;;2.70;99.90;;;;;;4852505;29;20041;-80
2023/01/23 02:54:01;;;;;;;14.55;5.65;;;2.70;99.90;;;;;;4865558;29;20062;-80
2023/01/23 02:56:26;;;;;;;10.43;4.95;;;2.80;99.90;;;;;;4886238;29;20123;-80
2023/01/23 03:01:36;;;;;;;8.60;4.78;;;2.80;99.90;;;;;;4878521;29;20055;-80
2023/01/23 03:04:05;;;;;;;16.52;6.32;;;2.80;99.90;;;;;;4855896;29;20048;-80
2023/01/23 03:06:35;;;;;;;10.38;5.78;;;2.80;99.90;;;;;;4880380;29;20044;-80
2023/01/23 03:09:10;;;;;;;12.05;5.57;;;2.80;99.90;;;;;;4895610;29;20044;-80
2023/01/23 03:11:37;;;;;;;12.02;5.70;;;2.80;99.90;;;;;;4869131;29;20052;-80
2023/01/23 03:14:05;;;;;;;12.27;5.82;;;2.80;99.90;;;;;;4854088;29;20037;-80
2023/01/23 03:16:31;;;;;;;11.48;5.68;;;2.80;99.90;;;;;;4885790;29;20127;-80
2023/01/23 03:19:00;;;;;;;11.65;5.40;;;2.80;99.90;;;;;;4891886;29;20053;-80
2023/01/23 03:21:26;;;;;;;15.70;5.63;;;4.40;99.90;;;;;;4869095;29;20048;-80
2023/01/23 03:23:51;;;;;;;13.77;5.55;;;3.10;99.90;;;;;;4877391;29;20057;-80
2023/01/23 03:26:17;;;;;;;13.18;5.35;;;3.70;99.90;;;;;;4880299;29;20064;-80
2023/01/23 03:31:27;;;;;;;14.30;5.68;;;2.80;99.90;;;;;;4883314;29;20052;-80
2023/01/23 03:33:53;;;;;;;10.70;5.38;;;3.00;99.90;;;;;;4880882;29;20090;-80
2023/01/23 03:36:19;;;;;;;10.70;5.63;;;2.80;99.90;;;;;;4872097;29;20040;-80
2023/01/23 03:41:29;;;;;;;13.57;6.15;;;2.80;99.90;;;;;;4877173;29;20067;-80
2023/01/23 03:43:55;;;;;;;15.75;6.03;;;2.80;99.90;;;;;;4854526;29;20040;-80
2023/01/23 03:46:21;;;;;;;13.45;6.00;;;3.80;99.90;;;;;;4864364;29;20052;-80
2023/01/23 03:48:47;;;;;;;15.20;6.20;;;4.20;99.90;;;;;;4875704;29;20052;-80
2023/01/23 03:51:12;;;;;;;11.95;5.80;;;3.70;99.90;;;;;;4865031;29;20044;-80
2023/01/23 03:53:39;;;;;;;14.60;6.17;;;2.80;99.90;;;;;;4894663;29;20090;-80
2023/01/23 03:56:05;;;;;;;;;;;3.80;99.90;;;;;;4862528;29;20364;-79
2023/01/23 03:58:31;;;;;;;12.18;6.00;;;2.80;99.90;;;;;;4862117;29;19931;-80
2023/01/23 04:00:57;;;;;;;13.35;6.45;;;3.80;99.90;;;;;;4862058;29;20044;-80
2023/01/23 04:03:22;;;;;;;12.48;6.15;;;2.80;99.90;;;;;;4861812;29;20093;-80
2023/01/23 04:05:48;;;;;;;11.70;5.97;;;2.80;99.90;;;;;;4869612;29;20080;-80
2023/01/23 04:08:14;;;;;;;13.50;6.15;;;2.80;99.90;;;;;;4892408;29;20051;-80
2023/01/23 04:10:39;;;;;;;14.60;6.57;;;4.30;99.90;;;;;;4866341;29;20051;-80
2023/01/23 04:13:05;;;;;;;14.80;5.93;;;2.80;99.90;;;;;;4883074;29;20296;-80
2023/01/23 04:15:32;;;;;;;10.10;5.40;;;2.80;99.90;;;;;;4883644;29;20295;-80
2023/01/23 04:17:58;;;;;;;15.57;5.85;;;2.90;99.90;;;;;;4891357;29;20057;-81
2023/01/23 04:20:24;;;;;;;13.32;6.05;;;2.80;99.90;;;;;;4864955;29;20093;-80
2023/01/23 04:22:49;;;;;;;10.85;5.82;;;4.10;99.90;;;;;;4876891;29;20408;-80
2023/01/23 04:25:15;;;;;;;16.20;6.38;;;3.00;99.90;;;;;;4887903;29;20121;-80
2023/01/23 04:27:41;;;;;;;14.63;5.93;;;2.80;99.90;;;;;;4866497;29;20036;-80
2023/01/23 04:30:08;;;;;;;13.33;5.73;;;2.70;99.90;;;;;;4883255;29;20481;-81
2023/01/23 04:32:33;;;;;;;13.98;6.03;;;2.70;99.90;;;;;;4852900;29;20808;-81
2023/01/23 04:34:59;;;;;;;10.50;5.57;;;2.80;99.90;;;;;;4887337;29;20040;-80
2023/01/23 04:37:25;;;;;;;12.60;5.83;;;2.80;99.90;;;;;;4850339;29;20037;-80
2023/01/23 04:39:53;;;;;;;12.15;5.88;;;3.70;99.90;;;;;;4885405;29;20101;-80
2023/01/23 04:42:19;;;;;;;11.95;6.10;;;2.80;99.90;;;;;;4865983;29;20505;-80
2023/01/23 04:44:44;;;;;;;13.25;6.03;;;2.70;99.90;;;;;;4853290;29;20078;-80
2023/01/23 04:47:10;;;;;;;16.67;6.20;;;2.70;99.90;;;;;;4880184;29;20048;-80
2023/01/23 04:49:36;;;;;;;11.60;5.50;;;2.70;99.90;;;;;;4854310;29;20067;-80
2023/01/23 04:52:01;;;;;;;12.38;5.57;;;2.70;99.90;;;;;;4874837;29;20044;-80
2023/01/23 04:54:30;;;;;;;9.77;5.15;;;2.70;99.90;;;;;;4889679;29;20401;-80
2023/01/23 04:56:55;;;;;;;12.82;5.78;;;3.60;99.90;;;;;;4873222;29;20045;-80
2023/01/23 04:59:21;;;;;;;11.17;5.50;;;2.70;99.90;;;;;;4881629;29;20511;-80
2023/01/23 05:01:47;;;;;;;14.18;5.78;;;2.70;99.90;;;;;;4884116;29;20364;-80
2023/01/23 05:04:13;;;;;;;11.93;5.95;;;2.70;99.90;;;;;;4870171;29;20068;-80
2023/01/23 05:06:39;;;;;;;13.35;5.63;;;3.20;99.90;;;;;;4850289;29;20047;-80
2023/01/23 05:09:05;;;;;;;13.85;5.90;;;4.20;99.90;;;;;;4863987;29;20048;-80
2023/01/23 05:11:31;;;;;;;9.10;5.07;;;2.70;99.90;;;;;;4879531;29;20049;-80
2023/01/23 05:13:57;;;;;;;14.57;5.68;;;2.70;99.90;;;;;;4868388;29;20469;-80
2023/01/23 05:16:23;;;;;;;14.70;6.15;;;2.70;99.90;;;;;;4863726;29;20036;-80
2023/01/23 05:18:48;;;;;;;12.23;5.03;;;3.30;99.90;;;;;;4863253;29;20056;-81
2023/01/23 05:21:14;;;;;;;11.00;5.55;;;4.00;99.90;;;;;;4879070;29;20048;-81
2023/01/23 05:23:40;;;;;;;13.52;5.80;;;4.20;99.90;;;;;;4862018;29;20040;-81
2023/01/23 05:26:05;;;;;;;11.53;5.23;;;2.80;99.90;;;;;;4851791;29;20477;-81
2023/01/23 05:28:31;;;;;;;11.03;5.30;;;3.90;99.90;;;;;;4885578;29;20372;-81
2023/01/23 05:30:57;;;;;;;9.37;5.67;;;2.70;99.90;;;;;;4879367;29;20059;-81
2023/01/23 05:33:22;;;;;;;12.90;5.43;;;2.70;99.90;;;;;;4883241;29;20304;-81
2023/01/23 05:35:48;;;;;;;11.00;5.90;;;2.60;99.90;;;;;;4877616;29;20284;-81
2023/01/23 05:38:14;;;;;;;11.87;6.10;;;3.50;99.90;;;;;;4872773;29;20296;-79
2023/01/23 05:40:39;;;;;;;12.98;5.75;;;2.70;99.90;;;;;;4875309;29;20509;-80
2023/01/23 05:43:05;;;;;;;13.80;5.60;;;4.50;99.90;;;;;;4869954;29;20048;-80
2023/01/23 05:45:33;;;;;;;14.93;5.70;;;2.50;99.90;;;;;;4863591;29;20127;-80
2023/01/23 05:47:59;;;;;;;12.80;5.78;;;2.60;99.90;;;;;;4865410;29;20095;-80
2023/01/23 05:50:25;;;;;;;10.77;6.22;;;2.60;99.90;;;;;;4867902;29;20412;-80
2023/01/23 05:52:50;;;;;;;14.07;6.35;;;2.60;99.90;;;;;;4871492;29;20048;-80
2023/01/23 05:55:16;;;;;;;12.95;6.55;;;2.60;99.90;;;;;;4868556;29;20073;-80
2023/01/23 05:57:44;;;;;;;17.58;5.55;;;2.60;99.90;;;;;;4845022;29;20033;-79
2023/01/23 06:00:12;;;;;;;11.20;5.88;;;3.80;99.90;;;;;;4862347;29;20520;-78
2023/01/23 06:02:38;;;;;;;13.93;6.60;;;2.60;99.90;;;;;;4877895;29;20051;-79
2023/01/23 06:05:04;;;;;;;12.75;6.30;;;4.30;99.90;;;;;;4862766;29;20052;-79
2023/01/23 06:07:30;;;;;;;15.63;6.55;;;2.60;99.90;;;;;;4870268;29;20047;-79
2023/01/23 06:09:56;;;;;;;12.75;6.13;;;2.60;99.90;;;;;;4868494;29;20044;-78
2023/01/23 06:12:21;;;;;;;13.50;7.03;;;2.60;99.90;;;;;;4878084;29;20049;-78
2023/01/23 06:14:47;;;;;;;12.40;6.25;;;2.60;99.90;;;;;;4862558;29;20049;-78
2023/01/23 06:17:13;;;;;;;17.02;7.50;;;2.70;99.90;;;;;;4894991;29;20521;-78
2023/01/23 06:19:39;;;;;;;22.95;6.55;;;2.60;99.90;;;;;;4881346;29;20135;-78
2023/01/23 06:22:05;;;;;;;11.90;6.60;;;3.50;99.90;;;;;;4881604;29;20134;-78
2023/01/23 06:24:31;;;;;;;16.50;6.97;;;3.50;99.90;;;;;;4897226;29;20051;-78
2023/01/23 06:26:56;;;;;;;14.77;6.88;;;2.60;99.90;;;;;;4896303;29;20048;-79
2023/01/23 06:29:22;;;;;;;12.87;6.43;;;3.00;99.90;;;;;;4881258;29;20496;-79
2023/01/23 06:31:48;;;;;;;14.65;7.05;;;2.60;99.90;;;;;;4896555;29;20391;-79
2023/01/23 06:34:14;;;;;;;13.38;7.05;;;2.60;99.90;;;;;;4896931;29;20409;-79
2023/01/23 06:36:40;;;;;;;16.02;7.13;;;2.60;99.90;;;;;;4881609;29;20037;-79
2023/01/23 06:39:07;;;;;;;17.02;7.15;;;2.70;99.90;;;;;;4866056;29;20564;-78
2023/01/23 06:41:33;;;;;;;17.50;6.97;;;2.60;99.90;;;;;;4881291;29;20079;-79
2023/01/23 06:43:58;;;;;;;15.45;7.35;;;2.60;99.90;;;;;;4881059;29;20040;-79
2023/01/23 06:46:24;;;;;;;18.23;7.77;;;2.60;99.90;;;;;;4866274;29;20096;-79
2023/01/23 06:48:51;;;;;;;14.68;7.90;;;2.80;99.90;;;;;;4877687;29;20379;-79
2023/01/23 06:51:17;;;;;;;18.45;8.05;;;2.60;99.90;;;;;;4881281;29;20561;-79
2023/01/23 06:53:43;;;;;;;18.33;8.00;;;2.50;99.90;;;;;;4881352;29;20119;-79
2023/01/23 06:56:09;;;;;;;14.63;7.50;;;2.50;99.90;;;;;;4896453;29;20280;-79
2023/01/23 06:58:37;;;;;;;14.20;7.13;;;2.50;99.90;;;;;;4896844;29;20051;-79
2023/01/23 07:01:11;;;;;;;16.92;7.38;;;2.50;99.90;;;;;;4876330;29;20405;-79
2023/01/23 07:03:37;;;;;;;13.98;6.63;;;2.50;99.90;;;;;;4884963;29;20048;-79
2023/01/23 07:06:05;;;;;;;15.10;6.72;;;2.40;99.90;;;;;;4862210;29;20532;-79
2023/01/23 07:08:35;;;;;;;15.57;6.68;;;2.50;99.90;;;;;;4862579;29;20048;-79
2023/01/23 07:11:01;;;;;;;14.20;6.45;;;2.50;99.90;;;;;;4862038;29;20123;-79
2023/01/23 07:13:27;;;;;;;14.57;7.05;;;4.10;99.90;;;;;;4862247;29;20165;-79
2023/01/23 07:15:53;;;;;;;15.85;6.75;;;2.90;99.90;;;;;;4877548;29;20041;-79
2023/01/23 07:18:19;;;;;;;15.60;7.07;;;3.80;99.90;;;;;;4862735;29;20405;-79
2023/01/23 07:20:46;;;;;;;13.55;7.07;;;2.80;99.90;;;;;;4880495;29;20051;-79
2023/01/23 07:23:12;;;;;;;17.20;8.05;;;3.40;99.90;;;;;;4879874;29;20048;-79
2023/01/23 07:25:38;;;;;;;13.43;7.00;;;2.50;99.90;;;;;;4865653;29;20092;-79
2023/01/23 07:28:05;;;;;;;12.40;6.45;;;2.50;99.90;;;;;;4896550;29;20401;-79
2023/01/23 07:30:32;;;;;;;15.88;6.57;;;2.50;99.90;;;;;;4896573;29;20527;-79
2023/01/23 07:32:58;;;;;;;13.35;6.40;;;2.50;99.90;;;;;;4895981;29;20055;-79
2023/01/23 07:35:24;;;;;;;17.20;7.43;;;2.50;99.90;;;;;;4871388;29;20032;-79
2023/01/23 07:37:50;;;;;;;10.75;5.90;;;2.50;99.90;;;;;;4862547;29;20405;-79
2023/01/23 07:40:16;;;;;;;13.10;6.32;;;2.60;99.90;;;;;;4880566;29;20056;-79
2023/01/23 07:42:42;;;;;;;14.75;6.95;;;2.60;99.90;;;;;;4849747;29;20370;-79
2023/01/23 07:45:09;;;;;;;13.77;6.45;;;2.50;99.90;;;;;;4880854;29;20044;-79
2023/01/23 07:47:41;;;;;;;14.18;5.93;;;2.50;99.90;;;;;;4881387;29;20107;-79
2023/01/23 07:50:10;;;;;;;10.73;6.53;;;2.60;99.90;;;;;;4896781;29;20058;-79
2023/01/23 07:52:36;;;;;;;11.95;6.28;;;2.60;99.90;;;;;;4880173;29;20055;-79
2023/01/23 07:55:02;;;;;;;9.63;5.28;;;2.60;99.90;;;;;;4884278;29;20036;-79
2023/01/23 07:57:28;;;;;;;13.15;6.38;;;2.60;99.90;;;;;;4868671;29;20048;-77
2023/01/23 07:59:54;;;;;;;11.27;5.63;;;2.60;99.90;;;;;;4887682;29;20044;-78
2023/01/23 08:02:19;;;;;;;10.82;5.20;;;2.60;99.90;;;;;;4877832;29;20440;-78
2023/01/23 08:04:45;;;;;;;13.57;5.63;;;2.60;99.90;;;;;;4878376;29;20632;-78
2023/01/23 08:07:11;;;;;;;12.63;6.10;;;2.60;99.90;;;;;;4869162;29;20496;-78
2023/01/23 08:09:37;;;;;;;9.85;5.38;;;2.60;99.90;;;;;;4865867;29;20088;-78
2023/01/23 08:12:03;;;;;;;10.68;5.15;;;4.00;99.90;;;;;;4890212;29;20048;-78
2023/01/23 08:14:29;;;;;;;11.52;4.97;;;2.60;99.90;;;;;;4883721;29;20126;-78
2023/01/23 08:16:55;;;;;;;8.63;5.72;;;2.80;99.90;;;;;;4867914;29;20132;-78
2023/01/23 08:19:24;;;;;;;11.75;5.35;;;2.70;99.90;;;;;;4870608;29;20078;-78
2023/01/23 08:21:49;;;;;;;8.93;5.55;;;2.70;99.90;;;;;;4880762;29;20155;-78
2023/01/23 08:24:15;;;;;;;9.73;5.43;;;3.00;99.90;;;;;;4880433;29;20072;-78
2023/01/23 08:26:41;;;;;;;12.60;6.68;;;2.90;99.90;;;;;;4865132;29;20100;-78
2023/01/23 08:29:07;;;;;;;8.90;5.20;;;2.70;99.90;;;;;;4894175;29;20581;-78
2023/01/23 08:31:34;;;;;;;10.93;5.47;;;2.70;99.90;;;;;;4865369;29;20128;-78
2023/01/23 08:34:00;;;;;;;11.35;5.55;;;3.10;99.90;;;;;;4880118;29;20083;-78
2023/01/23 08:36:26;;;;;;;8.88;4.90;;;3.80;99.90;;;;;;4881536;29;20068;-78
2023/01/23 08:38:52;;;;;;;10.43;5.32;;;3.10;99.90;;;;;;4899042;29;20071;-79
2023/01/23 08:41:18;;;;;;;10.43;5.05;;;2.70;99.90;;;;;;4898799;29;20078;-78
2023/01/23 08:43:43;;;;;;;12.32;4.90;;;2.80;99.90;;;;;;4883801;29;20044;-78
2023/01/23 08:46:10;;;;;;;10.30;4.43;;;2.80;99.90;;;;;;4898725;29;20115;-78
2023/01/23 08:48:35;;;;;;;9.20;4.53;;;4.00;99.90;;;;;;4898805;29;20043;-78
2023/01/23 08:51:05;;;;;;;9.55;5.57;;;2.80;99.90;;;;;;4891642;29;20044;-78
2023/01/23 08:53:32;;;;;;;10.00;4.43;;;2.80;99.90;;;;;;4882298;29;20040;-79
2023/01/23 08:56:21;;;;;;;7.40;4.70;;;2.80;99.90;;;;;;4876697;29;20044;-79
2023/01/23 08:58:47;;;;;;;8.05;4.53;;;2.80;99.90;;;;;;4880962;29;20044;-79
2023/01/23 09:01:31;;;;;;;9.35;4.10;;;3.40;99.90;;;;;;4879931;29;20103;-79
2023/01/23 09:03:56;;;;;;;9.40;4.57;;;3.40;99.90;;;;;;4854642;29;20036;-79
2023/01/23 09:06:22;;;;;;;7.97;4.10;;;2.90;99.90;;;;;;4896031;29;20088;-79
2023/01/23 09:08:48;;;;;;;8.05;4.80;;;2.90;99.90;;;;;;4898683;29;20572;-79
2023/01/23 09:11:14;;;;;;;7.32;4.35;;;2.90;99.90;;;;;;4898417;29;20493;-79
2023/01/23 09:13:40;;;;;;;6.38;3.90;;;3.10;99.90;;;;;;4898872;29;20078;-79
2023/01/23 09:16:09;;;;;;;6.40;4.38;;;2.90;99.90;;;;;;4867169;29;20064;-79
2023/01/23 09:18:35;;;;;;;6.93;4.03;;;2.90;99.90;;;;;;4879326;29;20056;-79
2023/01/23 09:21:10;;;;;;;8.80;4.68;;;3.10;99.90;;;;;;4863845;29;20045;-79
2023/01/23 09:23:36;;;;;;;9.10;4.35;;;3.00;99.90;;;;;;4864469;29;20124;-79
2023/01/23 09:26:10;;;;;;;6.75;4.22;;;3.40;99.90;;;;;;4879326;29;20068;-79
2023/01/23 09:28:37;;;;;;;6.95;4.18;;;3.20;99.90;;;;;;4888343;29;20032;-79
2023/01/23 09:31:06;;;;;;;9.63;4.00;;;3.00;99.90;;;;;;4898028;29;20075;-79
2023/01/23 09:33:32;;;;;;;8.82;4.35;;;3.00;99.90;;;;;;4892221;29;20041;-79
2023/01/23 09:35:58;;;;;;;8.82;4.00;;;3.00;99.90;;;;;;4865401;29;20111;-78
2023/01/23 09:38:25;;;;;;;9.63;4.65;;;3.00;99.90;;;;;;4882150;29;20466;-78
2023/01/23 09:40:55;;;;;;;9.23;4.30;;;3.00;99.90;;;;;;4865604;29;20055;-78
2023/01/23 09:43:25;;;;;;;8.77;4.95;;;3.50;99.90;;;;;;4897660;29;20040;-79
2023/01/23 09:46:25;;;;;;;9.13;5.13;;;3.00;99.90;;;;;;4897689;29;20048;-79
2023/01/23 09:49:11;;;;;;;10.57;5.43;;;3.00;99.90;;;;;;4877086;29;20537;-78
2023/01/23 09:51:37;;;;;;;12.90;6.03;;;3.00;99.90;;;;;;4891754;29;20084;-78
2023/01/23 09:54:43;;;;;;;11.07;6.20;;;3.90;99.90;;;;;;4873220;29;20090;-78
2023/01/23 09:57:23;;;;;;;13.63;4.63;;;3.10;99.90;;;;;;4892217;29;20040;-78
2023/01/23 10:00:02;;;;;;;10.38;4.55;;;3.10;99.90;;;;;;4891231;29;20040;-78
2023/01/23 10:02:28;;;;;;;12.82;5.70;;;3.20;99.90;;;;;;4884978;29;20435;-78
2023/01/23 10:04:57;;;;;;;10.02;5.45;;;4.00;99.90;;;;;;4879000;29;20051;-78
2023/01/23 10:07:35;;;;;;;11.52;5.90;;;4.40;99.90;;;;;;4892299;29;20660;-79
2023/01/23 10:10:38;;;;;;;11.52;5.30;;;3.20;99.90;;;;;;4895876;29;20054;-78
2023/01/23 10:13:13;;;;;;;8.43;5.18;;;3.30;99.90;;;;;;4883502;29;20413;-78
2023/01/23 10:15:45;;;;;;;10.32;5.38;;;3.30;99.90;;;;;;4881752;29;20079;-78
2023/01/23 10:18:32;;;;;;;7.85;4.50;;;3.20;99.90;;;;;;4896803;29;20060;-78
2023/01/23 10:21:06;;;;;;;8.10;4.40;;;3.30;99.90;;;;;;4897500;29;20480;-78
2023/01/23 10:23:41;;;;;;;8.48;4.63;;;3.30;99.90;;;;;;4897264;29;20051;-78
2023/01/23 10:26:19;;;;;;;9.50;4.90;;;3.60;99.90;;;;;;4889788;29;20052;-78
2023/01/23 10:28:45;;;;;;;9.00;5.28;;;3.30;99.90;;;;;;4881216;29;20123;-78
2023/01/23 10:31:28;;;;;;;8.70;5.20;;;3.40;99.90;;;;;;4878954;29;20091;-78
2023/01/23 10:33:59;;;;;;;9.00;5.40;;;3.30;99.90;;;;;;4881586;29;20048;-78
2023/01/23 10:36:31;;;;;;;10.55;5.10;;;3.30;99.90;;;;;;4881303;29;20036;-79
2023/01/23 10:39:07;;;;;;;8.20;4.82;;;3.40;99.90;;;;;;4881432;29;20041;-79
2023/01/23 10:41:33;;;;;;;9.15;5.03;;;3.40;99.90;;;;;;4882778;29;20074;-79
2023/01/23 10:44:00;;;;;;;11.48;5.32;;;3.40;99.90;;;;;;4877801;29;20484;-79
2023/01/23 10:46:53;;;;;;;11.52;6.53;;;3.40;99.90;;;;;;4881226;29;20485;-79
2023/01/23 10:49:32;;;;;;;11.18;6.30;;;3.40;99.90;;;;;;4896665;29;20039;-79
2023/01/23 10:51:58;;;;;;;12.18;7.35;;;3.40;99.90;;;;;;4879457;29;20048;-79
2023/01/23 10:54:25;;;;;;;11.02;6.53;;;3.50;99.90;;;;;;4862715;29;20059;-79
2023/01/23 10:57:03;;;;;;;9.57;6.10;;;3.50;99.90;;;;;;4885151;29;20060;-79
2023/01/23 10:59:52;;;;;;;12.13;6.18;;;3.50;99.90;;;;;;4877838;29;20054;-78
2023/01/23 11:02:27;;;;;;;12.40;6.72;;;3.80;99.90;;;;;;4887783;29;20044;-78
2023/01/23 11:04:53;;;;;;;11.40;6.13;;;3.80;99.90;;;;;;4894761;29;20054;-78
2023/01/23 11:07:28;;;;;;;11.80;6.03;;;3.50;99.90;;;;;;4876594;29;20043;-78
2023/01/23 11:09:59;;;;;;;12.95;6.03;;;3.50;99.90;;;;;;4885497;29;20045;-79
2023/01/23 11:12:28;;;;;;;13.20;6.18;;;3.50;99.90;;;;;;4891211;29;20047;-79
2023/01/23 11:15:21;;;;;;;11.88;5.72;;;3.50;99.90;;;;;;4900616;29;20040;-79
2023/01/23 11:17:47;;;;;;;12.00;6.28;;;3.60;99.90;;;;;;4867376;29;20052;-79
2023/01/23 11:20:27;;;;;;;;;;;3.60;99.90;;;;;;4882328;29;20583;-79
2023/01/23 11:23:09;;;;;;;14.02;6.05;;;3.70;99.90;;;;;;4898233;29;19926;-79
2023/01/23 11:25:43;;;;;;;12.38;6.90;;;4.10;99.90;;;;;;4900141;29;20052;-79
2023/01/23 11:28:23;;;;;;;12.30;6.53;;;3.70;99.90;;;;;;4882865;29;20513;-79
2023/01/23 11:31:18;;;;;;;11.27;5.88;;;3.70;99.90;;;;;;4890380;29;20047;-79
2023/01/23 11:33:57;;;;;;;12.55;6.75;;;3.70;99.90;;;;;;4900243;29;20047;-79
2023/01/23 11:36:35;;;;;;;11.68;5.95;;;3.70;99.90;;;;;;4896769;29;20124;-79
2023/01/23 11:39:20;;;;;;;14.40;6.78;;;3.80;99.90;;;;;;4864482;29;20070;-79
2023/01/23 11:41:47;;;;;;;12.68;6.50;;;3.90;99.90;;;;;;4875300;29;20056;-79
2023/01/23 11:44:22;;;;;;;;;;;3.80;99.90;;;;;;4884616;29;20040;-79
2023/01/23 11:47:16;;;;;;;11.63;5.93;;;3.90;99.90;;;;;;4884519;29;19927;-79
2023/01/23 11:50:19;;;;;;;13.82;6.35;;;3.90;99.90;;;;;;4885996;29;20040;-79
2023/01/23 11:53:10;;;;;;;12.43;6.72;;;3.90;99.90;;;;;;4881183;29;20040;-78
2023/01/23 11:56:09;;;;;;;10.20;5.97;;;4.00;99.90;;;;;;4864382;29;20119;-78
2023/01/23 11:58:44;;;;;;;11.15;6.40;;;4.00;99.90;;;;;;4880889;29;20045;-78
2023/01/23 12:01:16;;;;;;;11.80;6.40;;;4.20;99.90;;;;;;4865844;29;20036;-79
2023/01/23 12:04:03;;;;;;;12.05;5.75;;;4.10;99.90;;;;;;4880921;29;20119;-78
2023/01/23 12:06:35;;;;;;;10.82;6.35;;;4.20;99.90;;;;;;4888340;29;20041;-78
2023/01/23 12:09:19;;;;;;;11.32;5.78;;;4.20;99.90;;;;;;4867994;29;20128;-79
2023/01/23 12:11:59;;;;;;;11.45;6.22;;;4.20;99.90;;;;;;4883166;29;20056;-78
2023/01/23 12:14:32;;;;;;;10.80;6.35;;;4.20;99.90;;;;;;4899566;29;20506;-78
2023/01/23 12:17:09;;;;;;;11.15;6.43;;;4.20;99.90;;;;;;4893224;29;20041;-78
2023/01/23 12:19:52;;;;;;;9.75;5.28;;;4.20;99.90;;;;;;4886533;29;20143;-78
2023/01/23 12:22:29;;;;;;;10.23;5.47;;;4.20;99.90;;;;;;4888153;29;20523;-78
2023/01/23 12:25:10;;;;;;;;;;;4.20;99.90;;;;;;4864916;29;20041;-78
2023/01/23 12:27:39;;;;;;;10.70;6.38;;;4.20;99.90;;;;;;4864718;29;19926;-78
2023/01/23 12:30:10;;;;;;;10.02;5.45;;;4.30;99.90;;;;;;4887755;29;20131;-78
2023/01/23 12:33:08;;;;;;;12.75;5.85;;;4.10;99.90;;;;;;4899012;29;20437;-78
2023/01/23 12:35:57;;;;;;;12.80;6.45;;;4.20;99.90;;;;;;4883849;29;20450;-78
2023/01/23 12:38:46;;;;;;;12.10;7.00;;;4.10;99.90;;;;;;4880158;29;20052;-79
2023/01/23 12:41:18;;;;;;;14.30;6.30;;;4.10;99.90;;;;;;4895813;29;20032;-78
2023/01/23 12:43:44;;;;;;;13.55;6.05;;;4.10;99.90;;;;;;4899078;29;20040;-78
2023/01/23 12:46:16;;;;;;;24.57;6.13;;;4.10;99.90;;;;;;4884147;29;20148;-78
2023/01/23 12:48:44;;;;;;;9.77;5.88;;;4.30;99.90;;;;;;4879905;29;20092;-79
2023/01/23 12:51:21;;;;;;;13.35;6.10;;;4.60;99.90;;;;;;4870160;29;20067;-79
2023/01/23 12:53:52;;;;;;;12.45;6.47;;;4.10;99.90;;;;;;4886941;29;20051;-78
2023/01/23 12:56:32;;;;;;;11.30;5.97;;;4.50;99.90;;;;;;4880338;29;20107;-78
2023/01/23 12:59:15;;;;;;;14.85;6.93;;;4.10;99.90;;;;;;4865054;29;20516;-77
2023/01/23 13:02:04;;;;;;;12.60;6.45;;;4.10;99.90;;;;;;4879839;29;20470;-77
2023/01/23 13:04:58;;;;;;;14.20;6.28;;;4.10;99.90;;;;;;4884133;29;20100;-77
2023/01/23 13:08:00;;;;;;;12.48;6.10;;;4.00;99.90;;;;;;4879528;29;20040;-79
2023/01/23 13:13:32;;;;;;;13.20;6.05;;;4.00;99.90;;;;;;4879323;29;20041;-79
2023/01/23 13:16:28;;;;;;;9.70;5.47;;;4.00;99.90;;;;;;4856622;29;20036;-79